sensor_id;sensor_type;location;lat;lon;timestamp;pressure;altitude;pressure_sealevel;temperature;humidity
44734;BME280;30462;52.446;-1.930;2022-08-19T00:00:25;99770.04297;;;;
44734;BME280;30462;52.446;-1.930;2022-08-19T00:01:24;99773.19141;;;;
44734;BME280;30462;52.446;-1.930;2022-08-19T00:02:24;99772.98438;;;;
44734;BME280;30462;52.446;-1.930;2022-08-19T00:03:24;99772.98047;;;;
44734;BME280;30462;52.446;-1.930;2022-08-19T00:04:25;99778.05859;;;;
44734;BME280;30462;52.446;-1.930;2022-08-19T00:05:23;99776;;;;
44734;BME280;30462;52.446;-1.930;2022-08-19T00:06:23;99775.21875;;;;
44734;BME280;30462;52.446;-1.930;2022-08-19T00:07:24;99772.08203;;;;
44734;BME280;30462;52.446;-1.930;2022-08-19T00:08:23;99774.91016;;;;
44734;BME280;30462;52.446;-1.930;2022-08-19T00:09:23;99775.28125;;;;
44734;BME280;30462;52.446;-1.930;2022-08-19T00:10:24;99778.07031;;;;
44734;BME280;30462;52.446;-1.930;2022-08-19T00:11:23;99775.10156;;;;
44734;BME280;30462;52.446;-1.930;2022-08-19T00:12:24;99776.17578;;;;
44734;BME280;30462;52.446;-1.930;2022-08-19T00:13:24;99773.34766;;;;
44734;BME280;30462;52.446;-1.930;2022-08-19T00:14:24;99775.99609;;;;
44734;BME280;30462;52.446;-1.930;2022-08-19T00:15:23;99776.94531;;;;
44734;BME280;30462;52.446;-1.930;2022-08-19T00:16:24;99776.19141;;;;
44734;BME280;30462;52.446;-1.930;2022-08-19T00:17:24;99778.41406;;;;
44734;BME280;30462;52.446;-1.930;2022-08-19T00:18:24;99782.25391;;;;
44734;BME280;30462;52.446;-1.930;2022-08-19T00:19:24;99777.80859;;;;
44734;BME280;30462;52.446;-1.930;2022-08-19T00:20:23;99777.4375;;;;
44734;BME280;30462;52.446;-1.930;2022-08-19T00:21:24;99780.6875;;;;
44734;BME280;30462;52.446;-1.930;2022-08-19T00:22:24;99775.19922;;;;
44734;BME280;30462;52.446;-1.930;2022-08-19T00:23:24;99779.42969;;;;
44734;BME280;30462;52.446;-1.930;2022-08-19T00:24:24;99788.17578;;;;
44734;BME280;30462;52.446;-1.930;2022-08-19T00:25:23;99785.82813;;;;
44734;BME280;30462;52.446;-1.930;2022-08-19T00:26:24;99787.61719;;;;
44734;BME280;30462;52.446;-1.930;2022-08-19T00:27:24;99787.26563;;;;
44734;BME280;30462;52.446;-1.930;2022-08-19T00:28:23;99785.45703;;;;
44734;BME280;30462;52.446;-1.930;2022-08-19T00:29:24;99787.89453;;;;
44734;BME280;30462;52.446;-1.930;2022-08-19T00:30:23;99787.58984;;;;
44734;BME280;30462;52.446;-1.930;2022-08-19T00:31:23;99789.53125;;;;
44734;BME280;30462;52.446;-1.930;2022-08-19T00:32:23;99787.84766;;;;
44734;BME280;30462;52.446;-1.930;2022-08-19T00:33:24;99786.50391;;;;
44734;BME280;30462;52.446;-1.930;2022-08-19T00:34:23;99783.65234;;;;
44734;BME280;30462;52.446;-1.930;2022-08-19T00:35:24;99781.60938;;;;
44734;BME280;30462;52.446;-1.930;2022-08-19T00:36:23;99776.92969;;;;
44734;BME280;30462;52.446;-1.930;2022-08-19T00:37:24;99771.71094;;;;
44734;BME280;30462;52.446;-1.930;2022-08-19T00:38:24;99773.57813;;;;
44734;BME280;30462;52.446;-1.930;2022-08-19T00:39:23;99773.85938;;;;
44734;BME280;30462;52.446;-1.930;2022-08-19T00:40:24;99769.71875;;;;
44734;BME280;30462;52.446;-1.930;2022-08-19T00:41:24;99769.82031;;;;
44734;BME280;30462;52.446;-1.930;2022-08-19T00:42:24;99768.94141;;;;
44734;BME280;30462;52.446;-1.930;2022-08-19T00:43:25;99768.41797;;;;
44734;BME280;30462;52.446;-1.930;2022-08-19T00:44:24;99768.85156;;;;
44734;BME280;30462;52.446;-1.930;2022-08-19T00:45:25;99767.32813;;;;
44734;BME280;30462;52.446;-1.930;2022-08-19T00:46:24;99765.52734;;;;
44734;BME280;30462;52.446;-1.930;2022-08-19T00:47:24;99768.32422;;;;
44734;BME280;30462;52.446;-1.930;2022-08-19T00:48:24;99767.08594;;;;
44734;BME280;30462;52.446;-1.930;2022-08-19T00:49:25;99772.29688;;;;
44734;BME280;30462;52.446;-1.930;2022-08-19T00:50:24;99768.77344;;;;
44734;BME280;30462;52.446;-1.930;2022-08-19T00:51:24;99768.14844;;;;
44734;BME280;30462;52.446;-1.930;2022-08-19T00:52:25;99765.22266;;;;
44734;BME280;30462;52.446;-1.930;2022-08-19T00:53:26;99764.96484;;;;
44734;BME280;30462;52.446;-1.930;2022-08-19T00:54:24;99766.84766;;;;
44734;BME280;30462;52.446;-1.930;2022-08-19T00:55:25;99766.62891;;;;
44734;BME280;30462;52.446;-1.930;2022-08-19T00:56:24;99762.34766;;;;
44734;BME280;30462;52.446;-1.930;2022-08-19T00:57:26;99768.72266;;;;
44734;BME280;30462;52.446;-1.930;2022-08-19T00:58:25;99770.00391;;;;
44734;BME280;30462;52.446;-1.930;2022-08-19T00:59:24;99768.82422;;;;
44734;BME280;30462;52.446;-1.930;2022-08-19T01:00:25;99769.92578;;;;
44734;BME280;30462;52.446;-1.930;2022-08-19T01:01:24;99769.30859;;;;
44734;BME280;30462;52.446;-1.930;2022-08-19T01:02:23;99764.82422;;;;
44734;BME280;30462;52.446;-1.930;2022-08-19T01:03:23;99771.98438;;;;
44734;BME280;30462;52.446;-1.930;2022-08-19T01:04:23;99769.66797;;;;
44734;BME280;30462;52.446;-1.930;2022-08-19T01:05:24;99772.95703;;;;
44734;BME280;30462;52.446;-1.930;2022-08-19T01:06:24;99773.56641;;;;
44734;BME280;30462;52.446;-1.930;2022-08-19T01:07:23;99776.23828;;;;
44734;BME280;30462;52.446;-1.930;2022-08-19T01:08:23;99775.96094;;;;
44734;BME280;30462;52.446;-1.930;2022-08-19T01:09:24;99780.1875;;;;
44734;BME280;30462;52.446;-1.930;2022-08-19T01:10:25;99781.53125;;;;
44734;BME280;30462;52.446;-1.930;2022-08-19T01:11:24;99778.40234;;;;
44734;BME280;30462;52.446;-1.930;2022-08-19T01:12:24;99781.39063;;;;
44734;BME280;30462;52.446;-1.930;2022-08-19T01:13:24;99780.53516;;;;
44734;BME280;30462;52.446;-1.930;2022-08-19T01:14:24;99786.29688;;;;
44734;BME280;30462;52.446;-1.930;2022-08-19T01:15:24;99783.78906;;;;
44734;BME280;30462;52.446;-1.930;2022-08-19T01:16:25;99784.43359;;;;
44734;BME280;30462;52.446;-1.930;2022-08-19T01:17:24;99781.55859;;;;
44734;BME280;30462;52.446;-1.930;2022-08-19T01:18:24;99783.25781;;;;
44734;BME280;30462;52.446;-1.930;2022-08-19T01:19:26;99778.62891;;;;
44734;BME280;30462;52.446;-1.930;2022-08-19T01:20:24;99775.65625;;;;
44734;BME280;30462;52.446;-1.930;2022-08-19T01:21:25;99776.49219;;;;
44734;BME280;30462;52.446;-1.930;2022-08-19T01:22:26;99778.98438;;;;
44734;BME280;30462;52.446;-1.930;2022-08-19T01:23:23;99777.09375;;;;
44734;BME280;30462;52.446;-1.930;2022-08-19T01:24:24;99780.90625;;;;
44734;BME280;30462;52.446;-1.930;2022-08-19T01:25:24;99778.76953;;;;
44734;BME280;30462;52.446;-1.930;2022-08-19T01:26:24;99775.65234;;;;
44734;BME280;30462;52.446;-1.930;2022-08-19T01:27:24;99782.14063;;;;
44734;BME280;30462;52.446;-1.930;2022-08-19T01:28:25;99782.09375;;;;
44734;BME280;30462;52.446;-1.930;2022-08-19T01:29:24;99780.86719;;;;
44734;BME280;30462;52.446;-1.930;2022-08-19T01:30:25;99785.86328;;;;
44734;BME280;30462;52.446;-1.930;2022-08-19T01:31:25;99785.19922;;;;
44734;BME280;30462;52.446;-1.930;2022-08-19T01:32:24;99784.94531;;;;
44734;BME280;30462;52.446;-1.930;2022-08-19T01:33:24;99786.15625;;;;
44734;BME280;30462;52.446;-1.930;2022-08-19T01:34:23;99787.93359;;;;
44734;BME280;30462;52.446;-1.930;2022-08-19T01:35:24;99785.98047;;;;
44734;BME280;30462;52.446;-1.930;2022-08-19T01:36:27;99781.31641;;;;
44734;BME280;30462;52.446;-1.930;2022-08-19T01:37:23;99785.69922;;;;
44734;BME280;30462;52.446;-1.930;2022-08-19T01:38:24;99777.48828;;;;
44734;BME280;30462;52.446;-1.930;2022-08-19T01:39:24;99779.0625;;;;
44734;BME280;30462;52.446;-1.930;2022-08-19T01:40:25;99780.375;;;;
44734;BME280;30462;52.446;-1.930;2022-08-19T01:41:23;99784.09375;;;;
44734;BME280;30462;52.446;-1.930;2022-08-19T01:42:24;99786.92969;;;;
44734;BME280;30462;52.446;-1.930;2022-08-19T01:43:23;99789.38281;;;;
44734;BME280;30462;52.446;-1.930;2022-08-19T01:44:23;99788.55078;;;;
44734;BME280;30462;52.446;-1.930;2022-08-19T01:45:24;99794.30078;;;;
44734;BME280;30462;52.446;-1.930;2022-08-19T01:46:25;99793.90625;;;;
44734;BME280;30462;52.446;-1.930;2022-08-19T01:47:24;99793.57422;;;;
44734;BME280;30462;52.446;-1.930;2022-08-19T01:48:24;99796.23047;;;;
44734;BME280;30462;52.446;-1.930;2022-08-19T01:49:24;99800.03906;;;;
44734;BME280;30462;52.446;-1.930;2022-08-19T01:50:24;99800.17969;;;;
44734;BME280;30462;52.446;-1.930;2022-08-19T01:51:24;99798.03906;;;;
44734;BME280;30462;52.446;-1.930;2022-08-19T01:52:24;99797.33203;;;;
44734;BME280;30462;52.446;-1.930;2022-08-19T01:53:24;99799.39453;;;;
44734;BME280;30462;52.446;-1.930;2022-08-19T01:54:24;99796.90234;;;;
44734;BME280;30462;52.446;-1.930;2022-08-19T01:55:24;99798.32422;;;;
44734;BME280;30462;52.446;-1.930;2022-08-19T01:56:24;99802.06641;;;;
44734;BME280;30462;52.446;-1.930;2022-08-19T01:57:25;99804.53516;;;;
44734;BME280;30462;52.446;-1.930;2022-08-19T01:58:26;99807.15234;;;;
44734;BME280;30462;52.446;-1.930;2022-08-19T01:59:24;99809.76172;;;;
44734;BME280;30462;52.446;-1.930;2022-08-19T02:00:26;99808.70703;;;;
44734;BME280;30462;52.446;-1.930;2022-08-19T02:01:24;99809.36719;;;;
44734;BME280;30462;52.446;-1.930;2022-08-19T02:02:24;99809.49609;;;;
44734;BME280;30462;52.446;-1.930;2022-08-19T02:03:23;99807.35156;;;;
44734;BME280;30462;52.446;-1.930;2022-08-19T02:04:24;99805.80078;;;;
44734;BME280;30462;52.446;-1.930;2022-08-19T02:05:24;99807.38281;;;;
44734;BME280;30462;52.446;-1.930;2022-08-19T02:06:23;99807.66797;;;;
44734;BME280;30462;52.446;-1.930;2022-08-19T02:07:24;99807.9375;;;;
44734;BME280;30462;52.446;-1.930;2022-08-19T02:08:24;99805.68359;;;;
44734;BME280;30462;52.446;-1.930;2022-08-19T02:09:24;99808.89063;;;;
44734;BME280;30462;52.446;-1.930;2022-08-19T02:10:24;99808.10938;;;;
44734;BME280;30462;52.446;-1.930;2022-08-19T02:11:25;99808.02734;;;;
44734;BME280;30462;52.446;-1.930;2022-08-19T02:12:24;99807.05078;;;;
44734;BME280;30462;52.446;-1.930;2022-08-19T02:13:24;99803.6875;;;;
44734;BME280;30462;52.446;-1.930;2022-08-19T02:14:24;99803.6875;;;;
44734;BME280;30462;52.446;-1.930;2022-08-19T02:15:23;99802.07422;;;;
44734;BME280;30462;52.446;-1.930;2022-08-19T02:16:24;99803.50391;;;;
44734;BME280;30462;52.446;-1.930;2022-08-19T02:17:24;99801.38281;;;;
44734;BME280;30462;52.446;-1.930;2022-08-19T02:18:24;99799.09766;;;;
44734;BME280;30462;52.446;-1.930;2022-08-19T02:19:23;99799.72266;;;;
44734;BME280;30462;52.446;-1.930;2022-08-19T02:20:23;99795.27734;;;;
44734;BME280;30462;52.446;-1.930;2022-08-19T02:21:23;99799.98828;;;;
44734;BME280;30462;52.446;-1.930;2022-08-19T02:22:24;99800.86719;;;;
44734;BME280;30462;52.446;-1.930;2022-08-19T02:23:24;99803.77344;;;;
44734;BME280;30462;52.446;-1.930;2022-08-19T02:24:24;99804.61719;;;;
44734;BME280;30462;52.446;-1.930;2022-08-19T02:25:24;99804.51563;;;;
44734;BME280;30462;52.446;-1.930;2022-08-19T02:26:24;99807.21875;;;;
44734;BME280;30462;52.446;-1.930;2022-08-19T02:27:24;99810.22266;;;;
44734;BME280;30462;52.446;-1.930;2022-08-19T02:28:24;99810.08203;;;;
44734;BME280;30462;52.446;-1.930;2022-08-19T02:29:24;99811.88672;;;;
44734;BME280;30462;52.446;-1.930;2022-08-19T02:30:23;99812.01172;;;;
44734;BME280;30462;52.446;-1.930;2022-08-19T02:31:24;99815.89063;;;;
44734;BME280;30462;52.446;-1.930;2022-08-19T02:32:23;99812.29297;;;;
44734;BME280;30462;52.446;-1.930;2022-08-19T02:33:24;99816.41406;;;;
44734;BME280;30462;52.446;-1.930;2022-08-19T02:34:24;99816.30859;;;;
44734;BME280;30462;52.446;-1.930;2022-08-19T02:35:24;99822.10156;;;;
44734;BME280;30462;52.446;-1.930;2022-08-19T02:36:24;99823.40625;;;;
44734;BME280;30462;52.446;-1.930;2022-08-19T02:37:24;99825.66797;;;;
44734;BME280;30462;52.446;-1.930;2022-08-19T02:38:24;99825.625;;;;
44734;BME280;30462;52.446;-1.930;2022-08-19T02:39:24;99823.69141;;;;
44734;BME280;30462;52.446;-1.930;2022-08-19T02:40:24;99820.9375;;;;
44734;BME280;30462;52.446;-1.930;2022-08-19T02:41:25;99821.49219;;;;
44734;BME280;30462;52.446;-1.930;2022-08-19T02:42:23;99820.89063;;;;
44734;BME280;30462;52.446;-1.930;2022-08-19T02:43:24;99820.52344;;;;
44734;BME280;30462;52.446;-1.930;2022-08-19T02:44:24;99820.47656;;;;
44734;BME280;30462;52.446;-1.930;2022-08-19T02:45:23;99821.40625;;;;
44734;BME280;30462;52.446;-1.930;2022-08-19T02:46:25;99818.19141;;;;
44734;BME280;30462;52.446;-1.930;2022-08-19T02:47:23;99819.47656;;;;
44734;BME280;30462;52.446;-1.930;2022-08-19T02:48:24;99820.03516;;;;
44734;BME280;30462;52.446;-1.930;2022-08-19T02:49:24;99821.42578;;;;
44734;BME280;30462;52.446;-1.930;2022-08-19T02:50:24;99822.02734;;;;
44734;BME280;30462;52.446;-1.930;2022-08-19T02:51:24;99823.19141;;;;
44734;BME280;30462;52.446;-1.930;2022-08-19T02:52:24;99821.94922;;;;
44734;BME280;30462;52.446;-1.930;2022-08-19T02:53:26;99819.19141;;;;
44734;BME280;30462;52.446;-1.930;2022-08-19T02:54:24;99817.51172;;;;
44734;BME280;30462;52.446;-1.930;2022-08-19T02:55:24;99818.72656;;;;
44734;BME280;30462;52.446;-1.930;2022-08-19T02:56:24;99821.90234;;;;
44734;BME280;30462;52.446;-1.930;2022-08-19T02:57:24;99824.10938;;;;
44734;BME280;30462;52.446;-1.930;2022-08-19T02:58:23;99825.4375;;;;
44734;BME280;30462;52.446;-1.930;2022-08-19T02:59:24;99822.14844;;;;
44734;BME280;30462;52.446;-1.930;2022-08-19T03:00:24;99827.66406;;;;
44734;BME280;30462;52.446;-1.930;2022-08-19T03:01:25;99830.16797;;;;
44734;BME280;30462;52.446;-1.930;2022-08-19T03:02:24;99829.76953;;;;
44734;BME280;30462;52.446;-1.930;2022-08-19T03:03:23;99833.95703;;;;
44734;BME280;30462;52.446;-1.930;2022-08-19T03:04:24;99833.61328;;;;
44734;BME280;30462;52.446;-1.930;2022-08-19T03:05:23;99834.74219;;;;
44734;BME280;30462;52.446;-1.930;2022-08-19T03:06:23;99833.9375;;;;
44734;BME280;30462;52.446;-1.930;2022-08-19T03:07:24;99833.51563;;;;
44734;BME280;30462;52.446;-1.930;2022-08-19T03:08:24;99835.90234;;;;
44734;BME280;30462;52.446;-1.930;2022-08-19T03:09:24;99832.08594;;;;
44734;BME280;30462;52.446;-1.930;2022-08-19T03:10:24;99830.96875;;;;
44734;BME280;30462;52.446;-1.930;2022-08-19T03:11:25;99831.83594;;;;
44734;BME280;30462;52.446;-1.930;2022-08-19T03:12:24;99834.26563;;;;
44734;BME280;30462;52.446;-1.930;2022-08-19T03:13:23;99833.01563;;;;
44734;BME280;30462;52.446;-1.930;2022-08-19T03:14:23;99836.10938;;;;
44734;BME280;30462;52.446;-1.930;2022-08-19T03:15:24;99834.48828;;;;
44734;BME280;30462;52.446;-1.930;2022-08-19T03:16:24;99836.42188;;;;
44734;BME280;30462;52.446;-1.930;2022-08-19T03:17:23;99837.18359;;;;
44734;BME280;30462;52.446;-1.930;2022-08-19T03:18:24;99837.78516;;;;
44734;BME280;30462;52.446;-1.930;2022-08-19T03:19:24;99843.44922;;;;
44734;BME280;30462;52.446;-1.930;2022-08-19T03:20:24;99842.94141;;;;
44734;BME280;30462;52.446;-1.930;2022-08-19T03:21:24;99847.19922;;;;
44734;BME280;30462;52.446;-1.930;2022-08-19T03:22:24;99850.20313;;;;
44734;BME280;30462;52.446;-1.930;2022-08-19T03:23:24;99849.11328;;;;
44734;BME280;30462;52.446;-1.930;2022-08-19T03:24:24;99848.30078;;;;
44734;BME280;30462;52.446;-1.930;2022-08-19T03:25:24;99844.28516;;;;
44734;BME280;30462;52.446;-1.930;2022-08-19T03:26:24;99846.15234;;;;
44734;BME280;30462;52.446;-1.930;2022-08-19T03:27:24;99844.875;;;;
44734;BME280;30462;52.446;-1.930;2022-08-19T03:28:24;99843.08203;;;;
44734;BME280;30462;52.446;-1.930;2022-08-19T03:29:24;99842.37109;;;;
44734;BME280;30462;52.446;-1.930;2022-08-19T03:30:24;99839.32031;;;;
44734;BME280;30462;52.446;-1.930;2022-08-19T03:31:24;99840.6875;;;;
44734;BME280;30462;52.446;-1.930;2022-08-19T03:32:24;99843.875;;;;
44734;BME280;30462;52.446;-1.930;2022-08-19T03:33:25;99844.44141;;;;
44734;BME280;30462;52.446;-1.930;2022-08-19T03:34:25;99845.60938;;;;
44734;BME280;30462;52.446;-1.930;2022-08-19T03:35:23;99845.23047;;;;
44734;BME280;30462;52.446;-1.930;2022-08-19T03:36:24;99845.76563;;;;
44734;BME280;30462;52.446;-1.930;2022-08-19T03:37:23;99845.53516;;;;
44734;BME280;30462;52.446;-1.930;2022-08-19T03:38:25;99848.11328;;;;
44734;BME280;30462;52.446;-1.930;2022-08-19T03:39:23;99850.52734;;;;
44734;BME280;30462;52.446;-1.930;2022-08-19T03:40:23;99851.64453;;;;
44734;BME280;30462;52.446;-1.930;2022-08-19T03:41:24;99853.5;;;;
44734;BME280;30462;52.446;-1.930;2022-08-19T03:42:24;99857.875;;;;
44734;BME280;30462;52.446;-1.930;2022-08-19T03:43:23;99859.20703;;;;
44734;BME280;30462;52.446;-1.930;2022-08-19T03:44:23;99864.64063;;;;
44734;BME280;30462;52.446;-1.930;2022-08-19T03:45:24;99865.01172;;;;
44734;BME280;30462;52.446;-1.930;2022-08-19T03:46:25;99867.73047;;;;
44734;BME280;30462;52.446;-1.930;2022-08-19T03:47:24;99869.63672;;;;
44734;BME280;30462;52.446;-1.930;2022-08-19T03:48:24;99874.63672;;;;
44734;BME280;30462;52.446;-1.930;2022-08-19T03:49:25;99873.91406;;;;
44734;BME280;30462;52.446;-1.930;2022-08-19T03:50:24;99872.15234;;;;
44734;BME280;30462;52.446;-1.930;2022-08-19T03:51:25;99870.32813;;;;
44734;BME280;30462;52.446;-1.930;2022-08-19T03:52:24;99870.89063;;;;
44734;BME280;30462;52.446;-1.930;2022-08-19T03:53:24;99872.23047;;;;
44734;BME280;30462;52.446;-1.930;2022-08-19T03:54:25;99875.27734;;;;
44734;BME280;30462;52.446;-1.930;2022-08-19T03:55:23;99874.11719;;;;
44734;BME280;30462;52.446;-1.930;2022-08-19T03:56:23;99874.70703;;;;
44734;BME280;30462;52.446;-1.930;2022-08-19T03:57:24;99872.71094;;;;
44734;BME280;30462;52.446;-1.930;2022-08-19T03:58:23;99874.30859;;;;
44734;BME280;30462;52.446;-1.930;2022-08-19T03:59:25;99871.28516;;;;
44734;BME280;30462;52.446;-1.930;2022-08-19T04:00:24;99873.60938;;;;
44734;BME280;30462;52.446;-1.930;2022-08-19T04:01:26;99875.47266;;;;
44734;BME280;30462;52.446;-1.930;2022-08-19T04:02:24;99872.34766;;;;
44734;BME280;30462;52.446;-1.930;2022-08-19T04:03:24;99873.83594;;;;
44734;BME280;30462;52.446;-1.930;2022-08-19T04:04:24;99869.96484;;;;
44734;BME280;30462;52.446;-1.930;2022-08-19T04:05:24;99872.47266;;;;
44734;BME280;30462;52.446;-1.930;2022-08-19T04:06:25;99873.23438;;;;
44734;BME280;30462;52.446;-1.930;2022-08-19T04:07:23;99873.84766;;;;
44734;BME280;30462;52.446;-1.930;2022-08-19T04:08:23;99877.55469;;;;
44734;BME280;30462;52.446;-1.930;2022-08-19T04:09:24;99876.91406;;;;
44734;BME280;30462;52.446;-1.930;2022-08-19T04:10:24;99878.50781;;;;
44734;BME280;30462;52.446;-1.930;2022-08-19T04:11:25;99877.51172;;;;
44734;BME280;30462;52.446;-1.930;2022-08-19T04:12:24;99881.32422;;;;
44734;BME280;30462;52.446;-1.930;2022-08-19T04:13:24;99882.65234;;;;
44734;BME280;30462;52.446;-1.930;2022-08-19T04:14:25;99884.01953;;;;
44734;BME280;30462;52.446;-1.930;2022-08-19T04:15:23;99886.83984;;;;
44734;BME280;30462;52.446;-1.930;2022-08-19T04:16:24;99883.39844;;;;
44734;BME280;30462;52.446;-1.930;2022-08-19T04:17:23;99882.98438;;;;
44734;BME280;30462;52.446;-1.930;2022-08-19T04:18:24;99884.50391;;;;
44734;BME280;30462;52.446;-1.930;2022-08-19T04:19:24;99881.41016;;;;
44734;BME280;30462;52.446;-1.930;2022-08-19T04:20:23;99883.52734;;;;
44734;BME280;30462;52.446;-1.930;2022-08-19T04:21:24;99884.70703;;;;
44734;BME280;30462;52.446;-1.930;2022-08-19T04:22:24;99884.19141;;;;
44734;BME280;30462;52.446;-1.930;2022-08-19T04:23:24;99883.52734;;;;
44734;BME280;30462;52.446;-1.930;2022-08-19T04:24:23;99885.71875;;;;
44734;BME280;30462;52.446;-1.930;2022-08-19T04:25:24;99885.49609;;;;
44734;BME280;30462;52.446;-1.930;2022-08-19T04:26:25;99889.89063;;;;
44734;BME280;30462;52.446;-1.930;2022-08-19T04:27:23;99889.92578;;;;
44734;BME280;30462;52.446;-1.930;2022-08-19T04:28:24;99893.61719;;;;
44734;BME280;30462;52.446;-1.930;2022-08-19T04:29:24;99893.20703;;;;
44734;BME280;30462;52.446;-1.930;2022-08-19T04:30:24;99896.26953;;;;
44734;BME280;30462;52.446;-1.930;2022-08-19T04:31:25;99896.64453;;;;
44734;BME280;30462;52.446;-1.930;2022-08-19T04:32:23;99894.78125;;;;
44734;BME280;30462;52.446;-1.930;2022-08-19T04:33:24;99894.58984;;;;
44734;BME280;30462;52.446;-1.930;2022-08-19T04:34:25;99896.64063;;;;
44734;BME280;30462;52.446;-1.930;2022-08-19T04:35:23;99898.25781;;;;
44734;BME280;30462;52.446;-1.930;2022-08-19T04:36:24;99903.375;;;;
44734;BME280;30462;52.446;-1.930;2022-08-19T04:37:24;99902.21484;;;;
44734;BME280;30462;52.446;-1.930;2022-08-19T04:38:24;99903.5;;;;
44734;BME280;30462;52.446;-1.930;2022-08-19T04:39:27;99901.28125;;;;
44734;BME280;30462;52.446;-1.930;2022-08-19T04:40:24;99904.99219;;;;
44734;BME280;30462;52.446;-1.930;2022-08-19T04:41:24;99905.71875;;;;
44734;BME280;30462;52.446;-1.930;2022-08-19T04:42:24;99910.95703;;;;
44734;BME280;30462;52.446;-1.930;2022-08-19T04:43:24;99906.45313;;;;
44734;BME280;30462;52.446;-1.930;2022-08-19T04:44:24;99908.30469;;;;
44734;BME280;30462;52.446;-1.930;2022-08-19T04:45:24;99909.36328;;;;
44734;BME280;30462;52.446;-1.930;2022-08-19T04:46:23;99911.03516;;;;
44734;BME280;30462;52.446;-1.930;2022-08-19T04:47:23;99909.98047;;;;
44734;BME280;30462;52.446;-1.930;2022-08-19T04:48:24;99906.25;;;;
44734;BME280;30462;52.446;-1.930;2022-08-19T04:49:24;99906.70313;;;;
44734;BME280;30462;52.446;-1.930;2022-08-19T04:50:24;99911.03125;;;;
44734;BME280;30462;52.446;-1.930;2022-08-19T04:51:23;99912.88281;;;;
44734;BME280;30462;52.446;-1.930;2022-08-19T04:52:23;99917.22656;;;;
44734;BME280;30462;52.446;-1.930;2022-08-19T04:53:24;99915.61328;;;;
44734;BME280;30462;52.446;-1.930;2022-08-19T04:54:24;99922.09766;;;;
44734;BME280;30462;52.446;-1.930;2022-08-19T04:55:24;99923.83984;;;;
44734;BME280;30462;52.446;-1.930;2022-08-19T04:56:24;99927.27734;;;;
44734;BME280;30462;52.446;-1.930;2022-08-19T04:57:24;99929.61719;;;;
44734;BME280;30462;52.446;-1.930;2022-08-19T04:58:24;99931.14453;;;;
44734;BME280;30462;52.446;-1.930;2022-08-19T04:59:23;99932.03516;;;;
44734;BME280;30462;52.446;-1.930;2022-08-19T05:00:24;99932.41016;;;;
44734;BME280;30462;52.446;-1.930;2022-08-19T05:01:25;99932.78516;;;;
44734;BME280;30462;52.446;-1.930;2022-08-19T05:02:24;99932.83594;;;;
44734;BME280;30462;52.446;-1.930;2022-08-19T05:03:24;99932.65625;;;;
44734;BME280;30462;52.446;-1.930;2022-08-19T05:04:24;99930.85156;;;;
44734;BME280;30462;52.446;-1.930;2022-08-19T05:05:24;99927.28516;;;;
44734;BME280;30462;52.446;-1.930;2022-08-19T05:06:23;99932.32422;;;;
44734;BME280;30462;52.446;-1.930;2022-08-19T05:07:23;99930.91406;;;;
44734;BME280;30462;52.446;-1.930;2022-08-19T05:08:23;99927.05078;;;;
44734;BME280;30462;52.446;-1.930;2022-08-19T05:09:24;99929.47656;;;;
44734;BME280;30462;52.446;-1.930;2022-08-19T05:10:24;99931.33203;;;;
44734;BME280;30462;52.446;-1.930;2022-08-19T05:11:25;99936.35547;;;;
44734;BME280;30462;52.446;-1.930;2022-08-19T05:12:24;99938.17578;;;;
44734;BME280;30462;52.446;-1.930;2022-08-19T05:13:24;99939.80469;;;;
44734;BME280;30462;52.446;-1.930;2022-08-19T05:14:23;99944.32031;;;;
44734;BME280;30462;52.446;-1.930;2022-08-19T05:15:23;99946.71875;;;;
44734;BME280;30462;52.446;-1.930;2022-08-19T05:16:24;99946.375;;;;
44734;BME280;30462;52.446;-1.930;2022-08-19T05:17:24;99946.57422;;;;
44734;BME280;30462;52.446;-1.930;2022-08-19T05:18:24;99951.90234;;;;
44734;BME280;30462;52.446;-1.930;2022-08-19T05:19:24;99950.57813;;;;
44734;BME280;30462;52.446;-1.930;2022-08-19T05:20:24;99950.35156;;;;
44734;BME280;30462;52.446;-1.930;2022-08-19T05:21:24;99950.95313;;;;
44734;BME280;30462;52.446;-1.930;2022-08-19T05:22:24;99953.39063;;;;
44734;BME280;30462;52.446;-1.930;2022-08-19T05:23:23;99958.55469;;;;
44734;BME280;30462;52.446;-1.930;2022-08-19T05:24:24;99957.33203;;;;
44734;BME280;30462;52.446;-1.930;2022-08-19T05:25:24;99955.75391;;;;
44734;BME280;30462;52.446;-1.930;2022-08-19T05:26:24;99956.54688;;;;
44734;BME280;30462;52.446;-1.930;2022-08-19T05:27:24;99957.34375;;;;
44734;BME280;30462;52.446;-1.930;2022-08-19T05:28:24;99958.03906;;;;
44734;BME280;30462;52.446;-1.930;2022-08-19T05:29:25;99957.51172;;;;
44734;BME280;30462;52.446;-1.930;2022-08-19T05:30:24;99960.04297;;;;
44734;BME280;30462;52.446;-1.930;2022-08-19T05:31:23;99962.83984;;;;
44734;BME280;30462;52.446;-1.930;2022-08-19T05:32:23;99962.59375;;;;
44734;BME280;30462;52.446;-1.930;2022-08-19T05:33:23;99958.98047;;;;
44734;BME280;30462;52.446;-1.930;2022-08-19T05:34:24;99963.4375;;;;
44734;BME280;30462;52.446;-1.930;2022-08-19T05:35:24;99958.17188;;;;
44734;BME280;30462;52.446;-1.930;2022-08-19T05:36:23;99958.13672;;;;
44734;BME280;30462;52.446;-1.930;2022-08-19T05:37:23;99959.87109;;;;
44734;BME280;30462;52.446;-1.930;2022-08-19T05:38:24;99960.21484;;;;
44734;BME280;30462;52.446;-1.930;2022-08-19T05:39:25;99963.80078;;;;
44734;BME280;30462;52.446;-1.930;2022-08-19T05:40:24;99961.99219;;;;
44734;BME280;30462;52.446;-1.930;2022-08-19T05:41:24;99966.23047;;;;
44734;BME280;30462;52.446;-1.930;2022-08-19T05:42:24;99970.51953;;;;
44734;BME280;30462;52.446;-1.930;2022-08-19T05:43:24;99974.23438;;;;
44734;BME280;30462;52.446;-1.930;2022-08-19T05:44:24;99977.80078;;;;
44734;BME280;30462;52.446;-1.930;2022-08-19T05:45:24;99978.71875;;;;